sensor_id;sensor_type;location;lat;lon;timestamp;pressure;altitude;pressure_sealevel;temperature;humidity
818;BME280;391;51.052;6.954;2023-10-13T00:00:11;62710.63;;;16.29;100.00
818;BME280;391;51.052;6.954;2023-10-13T00:02:28;62705.44;;;16.29;100.00
818;BME280;391;51.052;6.954;2023-10-13T00:04:33;62713.66;;;16.34;100.00
818;BME280;391;51.052;6.954;2023-10-13T00:06:38;62713.88;;;16.36;100.00
818;BME280;391;51.052;6.954;2023-10-13T00:08:40;62711.25;;;16.36;100.00
818;BME280;391;51.052;6.954;2023-10-13T00:10:45;62711.59;;;16.34;100.00
818;BME280;391;51.052;6.954;2023-10-13T00:12:49;62717.00;;;16.37;100.00
818;BME280;391;51.052;6.954;2023-10-13T00:14:54;62668.72;;;15.94;100.00
818;BME280;391;51.052;6.954;2023-10-13T00:16:57;62707.66;;;16.31;100.00
818;BME280;391;51.052;6.954;2023-10-13T00:19:06;62714.22;;;16.34;100.00
818;BME280;391;51.052;6.954;2023-10-13T00:21:14;62707.28;;;16.26;100.00
818;BME280;391;51.052;6.954;2023-10-13T00:23:22;62705.06;;;16.31;100.00
818;BME280;391;51.052;6.954;2023-10-13T00:25:29;62709.94;;;16.33;100.00
818;BME280;391;51.052;6.954;2023-10-13T00:27:46;62706.00;;;16.29;100.00
818;BME280;391;51.052;6.954;2023-10-13T00:29:54;62693.84;;;16.21;100.00
818;BME280;391;51.052;6.954;2023-10-13T00:32:17;62696.66;;;16.23;100.00
818;BME280;391;51.052;6.954;2023-10-13T00:34:29;62714.00;;;16.32;100.00
818;BME280;391;51.052;6.954;2023-10-13T00:36:35;62691.78;;;16.21;100.00
818;BME280;391;51.052;6.954;2023-10-13T00:38:38;62701.28;;;16.23;100.00
818;BME280;391;51.052;6.954;2023-10-13T00:40:43;62709.16;;;16.30;100.00
818;BME280;391;51.052;6.954;2023-10-13T00:42:47;62710.84;;;16.31;100.00
818;BME280;391;51.052;6.954;2023-10-13T00:44:54;62706.56;;;16.30;100.00
818;BME280;391;51.052;6.954;2023-10-13T00:46:57;62705.06;;;16.31;100.00
818;BME280;391;51.052;6.954;2023-10-13T00:49:03;62705.06;;;16.31;100.00
818;BME280;391;51.052;6.954;2023-10-13T00:51:07;62721.88;;;16.39;100.00
818;BME280;391;51.052;6.954;2023-10-13T00:53:18;62727.16;;;16.46;100.00
818;BME280;391;51.052;6.954;2023-10-13T00:55:23;62721.50;;;16.41;100.00
818;BME280;391;51.052;6.954;2023-10-13T00:57:29;62723.41;;;16.45;100.00
818;BME280;391;51.052;6.954;2023-10-13T00:59:33;62730.84;;;16.47;100.00
818;BME280;391;51.052;6.954;2023-10-13T01:01:38;62723.03;;;16.47;100.00
818;BME280;391;51.052;6.954;2023-10-13T01:03:46;62729.38;;;16.48;100.00
818;BME280;391;51.052;6.954;2023-10-13T01:05:52;62729.38;;;16.48;100.00
818;BME280;391;51.052;6.954;2023-10-13T01:07:59;62719.47;;;16.41;100.00
818;BME280;391;51.052;6.954;2023-10-13T01:10:04;62726.97;;;16.51;100.00
818;BME280;391;51.052;6.954;2023-10-13T01:12:07;62728.81;;;16.48;100.00
818;BME280;391;51.052;6.954;2023-10-13T01:14:11;62717.25;;;16.39;100.00
818;BME280;391;51.052;6.954;2023-10-13T01:16:15;62727.56;;;16.51;100.00
818;BME280;391;51.052;6.954;2023-10-13T01:18:19;62730.16;;;16.51;100.00
818;BME280;391;51.052;6.954;2023-10-13T01:20:23;62736.72;;;16.55;100.00
818;BME280;391;51.052;6.954;2023-10-13T01:22:28;62730.91;;;16.54;100.00
818;BME280;391;51.052;6.954;2023-10-13T01:24:33;62731.50;;;16.55;100.00
818;BME280;391;51.052;6.954;2023-10-13T01:26:37;62739.53;;;16.57;100.00
818;BME280;391;51.052;6.954;2023-10-13T01:28:41;62732.38;;;16.53;100.00
818;BME280;391;51.052;6.954;2023-10-13T01:30:52;62739.88;;;16.55;100.00
818;BME280;391;51.052;6.954;2023-10-13T01:32:55;62738.72;;;16.54;100.00
818;BME280;391;51.052;6.954;2023-10-13T01:35:03;62715.53;;;16.38;100.00
818;BME280;391;51.052;6.954;2023-10-13T01:37:08;62736.91;;;16.57;100.00
818;BME280;391;51.052;6.954;2023-10-13T01:39:13;62732.97;;;16.54;100.00
818;BME280;391;51.052;6.954;2023-10-13T01:41:21;62742.47;;;16.55;100.00
818;BME280;391;51.052;6.954;2023-10-13T01:43:25;62733.88;;;16.52;100.00
818;BME280;391;51.052;6.954;2023-10-13T01:45:27;62738.59;;;16.59;100.00
818;BME280;391;51.052;6.954;2023-10-13T01:47:32;62726.38;;;16.43;100.00
818;BME280;391;51.052;6.954;2023-10-13T01:49:35;62724.94;;;16.51;100.00
818;BME280;391;51.052;6.954;2023-10-13T01:51:44;62736.91;;;16.57;100.00
818;BME280;391;51.052;6.954;2023-10-13T01:53:49;62738.03;;;16.58;100.00
818;BME280;391;51.052;6.954;2023-10-13T01:55:59;62717.25;;;16.39;100.00
818;BME280;391;51.052;6.954;2023-10-13T01:58:03;62728.81;;;16.48;100.00
818;BME280;391;51.052;6.954;2023-10-13T02:00:16;62714.06;;;16.39;100.00
818;BME280;391;51.052;6.954;2023-10-13T02:02:21;62734.09;;;16.55;100.00
818;BME280;391;51.052;6.954;2023-10-13T02:04:33;62739.16;;;16.59;100.00
818;BME280;391;51.052;6.954;2023-10-13T02:06:37;62744.38;;;16.59;100.00
818;BME280;391;51.052;6.954;2023-10-13T02:08:40;62733.19;;;16.56;100.00
818;BME280;391;51.052;6.954;2023-10-13T02:10:45;62721.16;;;16.43;100.00
818;BME280;391;51.052;6.954;2023-10-13T02:12:49;62726.41;;;16.50;100.00
818;BME280;391;51.052;6.954;2023-10-13T02:14:59;62738.03;;;16.58;100.00
818;BME280;391;51.052;6.954;2023-10-13T02:17:04;62730.16;;;16.51;100.00
818;BME280;391;51.052;6.954;2023-10-13T02:19:15;62744.38;;;16.59;100.00
818;BME280;391;51.052;6.954;2023-10-13T02:21:20;62734.88;;;16.58;100.00
818;BME280;391;51.052;6.954;2023-10-13T02:23:24;62739.38;;;16.62;100.00
818;BME280;391;51.052;6.954;2023-10-13T02:25:31;62743.09;;;16.63;100.00
818;BME280;391;51.052;6.954;2023-10-13T02:27:38;62736.91;;;16.57;100.00
818;BME280;391;51.052;6.954;2023-10-13T02:29:43;62739.38;;;16.62;100.00
818;BME280;391;51.052;6.954;2023-10-13T02:31:49;62737.69;;;16.60;100.00
818;BME280;391;51.052;6.954;2023-10-13T02:33:58;62741.22;;;16.59;100.00
818;BME280;391;51.052;6.954;2023-10-13T02:36:03;62737.13;;;16.60;100.00
818;BME280;391;51.052;6.954;2023-10-13T02:38:07;62734.88;;;16.58;100.00
818;BME280;391;51.052;6.954;2023-10-13T02:40:14;62736.34;;;16.57;100.00
818;BME280;391;51.052;6.954;2023-10-13T02:42:17;62734.69;;;16.55;100.00
818;BME280;391;51.052;6.954;2023-10-13T02:44:25;62741.22;;;16.59;100.00
818;BME280;391;51.052;6.954;2023-10-13T02:46:34;62737.69;;;16.60;100.00
818;BME280;391;51.052;6.954;2023-10-13T02:48:40;62741.75;;;16.59;100.00
818;BME280;391;51.052;6.954;2023-10-13T02:50:55;62736.56;;;16.59;100.00
818;BME280;391;51.052;6.954;2023-10-13T02:52:58;62732.06;;;16.55;100.00
818;BME280;391;51.052;6.954;2023-10-13T02:55:01;62738.03;;;16.58;100.00
818;BME280;391;51.052;6.954;2023-10-13T02:57:11;62740.09;;;16.58;100.00
818;BME280;391;51.052;6.954;2023-10-13T02:59:14;62738.38;;;16.56;100.00
818;BME280;391;51.052;6.954;2023-10-13T03:01:17;62737.84;;;16.56;100.00
818;BME280;391;51.052;6.954;2023-10-13T03:03:21;62732.63;;;16.56;100.00
818;BME280;391;51.052;6.954;2023-10-13T03:05:26;62733.41;;;16.59;100.00
818;BME280;391;51.052;6.954;2023-10-13T03:07:34;62714.41;;;16.37;100.00
818;BME280;391;51.052;6.954;2023-10-13T03:09:38;62714.06;;;16.39;100.00
818;BME280;391;51.052;6.954;2023-10-13T03:11:51;62733.75;;;16.57;100.00
818;BME280;391;51.052;6.954;2023-10-13T03:13:54;62734.88;;;16.58;100.00
818;BME280;391;51.052;6.954;2023-10-13T03:15:57;62735.44;;;16.58;100.00
818;BME280;391;51.052;6.954;2023-10-13T03:18:00;62731.72;;;16.57;100.00
818;BME280;391;51.052;6.954;2023-10-13T03:20:05;62740.09;;;16.58;100.00
818;BME280;391;51.052;6.954;2023-10-13T03:22:15;62730.91;;;16.54;100.00
818;BME280;391;51.052;6.954;2023-10-13T03:24:19;62734.88;;;16.58;100.00
818;BME280;391;51.052;6.954;2023-10-13T03:26:25;62736.91;;;16.57;100.00
818;BME280;391;51.052;6.954;2023-10-13T03:28:29;62741.75;;;16.59;100.00
818;BME280;391;51.052;6.954;2023-10-13T03:30:39;62740.66;;;16.58;100.00
818;BME280;391;51.052;6.954;2023-10-13T03:32:44;62719.69;;;16.44;100.00
818;BME280;391;51.052;6.954;2023-10-13T03:34:48;62735.78;;;16.56;100.00
818;BME280;391;51.052;6.954;2023-10-13T03:37:15;62732.06;;;16.55;100.00
818;BME280;391;51.052;6.954;2023-10-13T03:39:20;62737.13;;;16.60;100.00
818;BME280;391;51.052;6.954;2023-10-13T03:41:29;62730.34;;;16.54;100.00
818;BME280;391;51.052;6.954;2023-10-13T03:43:33;62739.00;;;16.64;100.00
818;BME280;391;51.052;6.954;2023-10-13T03:45:48;62745.69;;;16.63;100.00
818;BME280;391;51.052;6.954;2023-10-13T03:47:55;62740.84;;;16.61;100.00
818;BME280;391;51.052;6.954;2023-10-13T03:49:57;62725.44;;;16.45;100.00
818;BME280;391;51.052;6.954;2023-10-13T03:52:16;62751.31;;;16.68;100.00
818;BME280;391;51.052;6.954;2023-10-13T03:54:24;62749.28;;;16.68;100.00
818;BME280;391;51.052;6.954;2023-10-13T03:56:32;62747.59;;;16.67;100.00
818;BME280;391;51.052;6.954;2023-10-13T03:58:42;62738.25;;;16.61;100.00
818;BME280;391;51.052;6.954;2023-10-13T04:00:48;62755.81;;;16.72;100.00
818;BME280;391;51.052;6.954;2023-10-13T04:02:52;62755.47;;;16.74;100.00
818;BME280;391;51.052;6.954;2023-10-13T04:05:10;62761.25;;;16.74;100.00
818;BME280;391;51.052;6.954;2023-10-13T04:07:33;62746.31;;;16.70;100.00
818;BME280;391;51.052;6.954;2023-10-13T04:10:03;62754.00;;;16.75;100.00
818;BME280;391;51.052;6.954;2023-10-13T04:12:25;62758.28;;;16.76;100.00
818;BME280;391;51.052;6.954;2023-10-13T04:14:56;62763.13;;;16.78;100.00
818;BME280;391;51.052;6.954;2023-10-13T04:17:25;62761.63;;;16.79;100.00
818;BME280;391;51.052;6.954;2023-10-13T04:19:30;62762.56;;;16.78;100.00
818;BME280;391;51.052;6.954;2023-10-13T04:21:54;62758.47;;;16.79;100.00
818;BME280;391;51.052;6.954;2023-10-13T04:24:03;62762.00;;;16.77;100.00
818;BME280;391;51.052;6.954;2023-10-13T04:26:25;62751.38;;;16.75;100.00
818;BME280;391;51.052;6.954;2023-10-13T04:28:38;62750.81;;;16.74;100.00
818;BME280;391;51.052;6.954;2023-10-13T04:30:53;62748.16;;;16.67;100.00
818;BME280;391;51.052;6.954;2023-10-13T04:33:02;62755.66;;;16.76;100.00
818;BME280;391;51.052;6.954;2023-10-13T04:35:38;62742.19;;;16.64;100.00
818;BME280;391;51.052;6.954;2023-10-13T04:37:50;62754.00;;;16.75;100.00
818;BME280;391;51.052;6.954;2023-10-13T04:39:54;62749.28;;;16.68;100.00
818;BME280;391;51.052;6.954;2023-10-13T04:42:02;62745.69;;;16.63;100.00
818;BME280;391;51.052;6.954;2023-10-13T04:44:17;62740.28;;;16.60;100.00
818;BME280;391;51.052;6.954;2023-10-13T04:46:53;62747.22;;;16.69;100.00
818;BME280;391;51.052;6.954;2023-10-13T04:49:11;62748.16;;;16.67;100.00
818;BME280;391;51.052;6.954;2023-10-13T04:51:29;62755.09;;;16.76;100.00
818;BME280;391;51.052;6.954;2023-10-13T04:53:53;62761.25;;;16.74;100.00
818;BME280;391;51.052;6.954;2023-10-13T04:56:07;62759.75;;;16.75;100.00
818;BME280;391;51.052;6.954;2023-10-13T04:58:30;62747.78;;;16.69;100.00
818;BME280;391;51.052;6.954;2023-10-13T05:01:00;62759.75;;;16.75;100.00
818;BME280;391;51.052;6.954;2023-10-13T05:03:40;62751.94;;;16.75;100.00
818;BME280;391;51.052;6.954;2023-10-13T05:06:06;62751.72;;;16.73;100.00
818;BME280;391;51.052;6.954;2023-10-13T05:08:29;62743.09;;;16.63;100.00
818;BME280;391;51.052;6.954;2023-10-13T05:10:50;62753.22;;;16.72;100.00
818;BME280;391;51.052;6.954;2023-10-13T05:13:11;62755.09;;;16.76;100.00
818;BME280;391;51.052;6.954;2023-10-13T05:15:32;62754.53;;;16.75;100.00
818;BME280;391;51.052;6.954;2023-10-13T05:17:54;62756.78;;;16.77;100.00
818;BME280;391;51.052;6.954;2023-10-13T05:20:15;62757.34;;;16.78;100.00
818;BME280;391;51.052;6.954;2023-10-13T05:22:37;62751.53;;;16.70;100.00
818;BME280;391;51.052;6.954;2023-10-13T05:24:58;62742.53;;;16.62;100.00
818;BME280;391;51.052;6.954;2023-10-13T05:27:19;62759.03;;;16.79;100.00
818;BME280;391;51.052;6.954;2023-10-13T05:29:41;62758.84;;;16.77;100.00
818;BME280;391;51.052;6.954;2023-10-13T05:32:02;62734.50;;;16.60;100.00
818;BME280;391;51.052;6.954;2023-10-13T05:34:24;62732.06;;;16.55;100.00
818;BME280;391;51.052;6.954;2023-10-13T05:36:45;62761.84;;;16.82;100.00
818;BME280;391;51.052;6.954;2023-10-13T05:39:06;62769.13;;;16.81;100.00
818;BME280;391;51.052;6.954;2023-10-13T05:41:27;62755.47;;;16.74;100.00
818;BME280;391;51.052;6.954;2023-10-13T05:43:49;62755.09;;;16.76;100.00
818;BME280;391;51.052;6.954;2023-10-13T05:46:09;62759.25;;;16.82;100.00
818;BME280;391;51.052;6.954;2023-10-13T05:48:31;62765.78;;;16.85;100.00
818;BME280;391;51.052;6.954;2023-10-13T05:50:52;62763.53;;;16.83;100.00
818;BME280;391;51.052;6.954;2023-10-13T05:53:16;62763.53;;;16.83;100.00
818;BME280;391;51.052;6.954;2023-10-13T05:55:36;62759.19;;;16.75;100.00
818;BME280;391;51.052;6.954;2023-10-13T05:57:58;62762.56;;;16.78;100.00
818;BME280;391;51.052;6.954;2023-10-13T06:00:19;62762.22;;;16.80;100.00
818;BME280;391;51.052;6.954;2023-10-13T06:02:40;62759.59;;;16.80;100.00
818;BME280;391;51.052;6.954;2023-10-13T06:05:01;62765.38;;;16.80;100.00
818;BME280;391;51.052;6.954;2023-10-13T06:07:26;62757.91;;;16.78;100.00
818;BME280;391;51.052;6.954;2023-10-13T06:09:48;62771.34;;;16.83;100.00
818;BME280;391;51.052;6.954;2023-10-13T06:12:12;62772.69;;;16.87;100.00
818;BME280;391;51.052;6.954;2023-10-13T06:14:33;62765.22;;;16.85;100.00
818;BME280;391;51.052;6.954;2023-10-13T06:16:53;62769.16;;;16.88;100.00
818;BME280;391;51.052;6.954;2023-10-13T06:19:14;62770.66;;;16.87;100.00
818;BME280;391;51.052;6.954;2023-10-13T06:21:35;62771.97;;;16.91;100.00
818;BME280;391;51.052;6.954;2023-10-13T06:23:58;62769.91;;;16.91;100.00
818;BME280;391;51.052;6.954;2023-10-13T06:26:19;62775.91;;;16.94;100.00
818;BME280;391;51.052;6.954;2023-10-13T06:28:40;62772.53;;;16.91;100.00
818;BME280;391;51.052;6.954;2023-10-13T06:30:56;62757.56;;;16.80;100.00
818;BME280;391;51.052;6.954;2023-10-13T06:32:58;62780.75;;;16.97;100.00
818;BME280;391;51.052;6.954;2023-10-13T06:35:04;62786.75;;;17.00;100.00
818;BME280;391;51.052;6.954;2023-10-13T06:37:21;62775.91;;;16.94;100.00
818;BME280;391;51.052;6.954;2023-10-13T06:39:29;62762.06;;;16.84;100.00
818;BME280;391;51.052;6.954;2023-10-13T06:41:37;62757.34;;;16.78;100.00
818;BME280;391;51.052;6.954;2023-10-13T06:43:43;62762.78;;;16.80;100.00
818;BME280;391;51.052;6.954;2023-10-13T06:45:48;62760.88;;;16.76;100.00
818;BME280;391;51.052;6.954;2023-10-13T06:47:59;62758.63;;;16.74;100.00
818;BME280;391;51.052;6.954;2023-10-13T06:50:02;62753.06;;;16.76;100.00
818;BME280;391;51.052;6.954;2023-10-13T06:52:05;62755.88;;;16.79;100.00
818;BME280;391;51.052;6.954;2023-10-13T06:54:09;62754.53;;;16.75;100.00
818;BME280;391;51.052;6.954;2023-10-13T06:56:23;62750.81;;;16.74;100.00
818;BME280;391;51.052;6.954;2023-10-13T06:58:30;62722.72;;;16.49;100.00
818;BME280;391;51.052;6.954;2023-10-13T07:00:35;62740.28;;;16.60;100.00
818;BME280;391;51.052;6.954;2023-10-13T07:02:40;62754.00;;;16.75;100.00
818;BME280;391;51.052;6.954;2023-10-13T07:04:46;62758.28;;;16.76;100.00
818;BME280;391;51.052;6.954;2023-10-13T07:06:50;62750.19;;;16.67;100.00
818;BME280;391;51.052;6.954;2023-10-13T07:08:53;62772.88;;;16.89;100.00
818;BME280;391;51.052;6.954;2023-10-13T07:10:59;62779.44;;;16.93;100.00
818;BME280;391;51.052;6.954;2023-10-13T07:13:06;62742.94;;;16.67;100.00
818;BME280;391;51.052;6.954;2023-10-13T07:15:10;62780.75;;;16.97;100.00
818;BME280;391;51.052;6.954;2023-10-13T07:17:22;62781.31;;;16.97;100.00
818;BME280;391;51.052;6.954;2023-10-13T07:19:30;62782.09;;;17.00;100.00
818;BME280;391;51.052;6.954;2023-10-13T07:21:33;62786.94;;;17.02;100.00
818;BME280;391;51.052;6.954;2023-10-13T07:23:37;62771.63;;;16.93;100.00
818;BME280;391;51.052;6.954;2023-10-13T07:25:41;62791.06;;;17.08;100.00
818;BME280;391;51.052;6.954;2023-10-13T07:27:43;62623.09;;;15.57;100.00
818;BME280;391;51.052;6.954;2023-10-13T07:29:48;62796.16;;;17.13;100.00
818;BME280;391;51.052;6.954;2023-10-13T07:31:58;62805.84;;;17.17;100.00
818;BME280;391;51.052;6.954;2023-10-13T07:34:01;62806.06;;;17.19;100.00
818;BME280;391;51.052;6.954;2023-10-13T07:36:15;62806.25;;;17.22;100.00
818;BME280;391;51.052;6.954;2023-10-13T07:38:20;62811.13;;;17.24;100.00
818;BME280;391;51.052;6.954;2023-10-13T07:40:24;62812.25;;;17.25;100.00
818;BME280;391;51.052;6.954;2023-10-13T07:42:41;62815.25;;;17.30;100.00
818;BME280;391;51.052;6.954;2023-10-13T07:44:45;62823.50;;;17.35;100.00
818;BME280;391;51.052;6.954;2023-10-13T07:46:51;62834.75;;;17.45;100.00
818;BME280;391;51.052;6.954;2023-10-13T07:49:01;62839.09;;;17.54;100.00
818;BME280;391;51.052;6.954;2023-10-13T07:51:17;62864.00;;;17.71;100.00
818;BME280;391;51.052;6.954;2023-10-13T07:53:21;62869.28;;;17.78;100.00
818;BME280;391;51.052;6.954;2023-10-13T07:55:25;62877.16;;;17.85;100.00
818;BME280;391;51.052;6.954;2023-10-13T07:57:29;62885.03;;;17.92;100.00
818;BME280;391;51.052;6.954;2023-10-13T07:59:33;62877.91;;;17.88;100.00
818;BME280;391;51.052;6.954;2023-10-13T08:01:50;62907.50;;;18.06;100.00
818;BME280;391;51.052;6.954;2023-10-13T08:04:08;62906.78;;;18.10;100.00
818;BME280;391;51.052;6.954;2023-10-13T08:06:15;62909.25;;;18.14;100.00
818;BME280;391;51.052;6.954;2023-10-13T08:08:31;62912.97;;;18.15;100.00
818;BME280;391;51.052;6.954;2023-10-13T08:10:40;62918.41;;;18.18;100.00
818;BME280;391;51.052;6.954;2023-10-13T08:12:45;62929.50;;;18.32;100.00
818;BME280;391;51.052;6.954;2023-10-13T08:14:47;62925.41;;;18.33;100.00
818;BME280;391;51.052;6.954;2023-10-13T08:16:52;62930.81;;;18.36;100.00
818;BME280;391;51.052;6.954;2023-10-13T08:18:57;62934.78;;;18.39;100.00
818;BME280;391;51.052;6.954;2023-10-13T08:21:03;62938.50;;;18.40;100.00
818;BME280;391;51.052;6.954;2023-10-13T08:23:06;62935.34;;;18.40;100.00
818;BME280;391;51.052;6.954;2023-10-13T08:25:36;62940.38;;;18.44;100.00
818;BME280;391;51.052;6.954;2023-10-13T08:27:53;62946.94;;;18.48;100.00
818;BME280;391;51.052;6.954;2023-10-13T08:30:23;62939.28;;;18.43;100.00
818;BME280;391;51.052;6.954;2023-10-13T08:32:32;62961.41;;;18.59;100.00
818;BME280;391;51.052;6.954;2023-10-13T08:34:58;62967.25;;;18.66;100.00
818;BME280;391;51.052;6.954;2023-10-13T08:37:24;62962.19;;;18.62;100.00
818;BME280;391;51.052;6.954;2023-10-13T08:39:31;62978.88;;;18.74;100.00
818;BME280;391;51.052;6.954;2023-10-13T08:41:50;62988.28;;;18.87;100.00
818;BME280;391;51.052;6.954;2023-10-13T08:44:15;63001.41;;;18.94;100.00
818;BME280;391;51.052;6.954;2023-10-13T08:46:47;62997.50;;;18.98;100.00
818;BME280;391;51.052;6.954;2023-10-13T08:49:07;63006.88;;;19.04;100.00
818;BME280;391;51.052;6.954;2023-10-13T08:51:17;63007.78;;;19.02;100.00
818;BME280;391;51.052;6.954;2023-10-13T08:53:33;63013.63;;;19.10;100.00
818;BME280;391;51.052;6.954;2023-10-13T08:55:46;63020.41;;;19.16;100.00
818;BME280;391;51.052;6.954;2023-10-13T08:58:04;63020.41;;;19.16;100.00
818;BME280;391;51.052;6.954;2023-10-13T09:00:16;63025.81;;;19.19;100.00
818;BME280;391;51.052;6.954;2023-10-13T09:02:52;63039.56;;;19.33;100.00
818;BME280;391;51.052;6.954;2023-10-13T09:05:20;63044.31;;;19.40;100.00
818;BME280;391;51.052;6.954;2023-10-13T09:07:45;63050.50;;;19.45;100.00
818;BME280;391;51.052;6.954;2023-10-13T09:10:05;63086.78;;;19.80;100.00
818;BME280;391;51.052;6.954;2023-10-13T09:12:35;63118.88;;;20.02;100.00
818;BME280;391;51.052;6.954;2023-10-13T09:14:39;63127.72;;;20.15;100.00
818;BME280;391;51.052;6.954;2023-10-13T09:16:46;63155.75;;;20.37;100.00
818;BME280;391;51.052;6.954;2023-10-13T09:19:09;63166.47;;;20.47;100.00
818;BME280;391;51.052;6.954;2023-10-13T09:21:16;63162.72;;;20.46;100.00
818;BME280;391;51.052;6.954;2023-10-13T09:23:51;63167.38;;;20.45;100.00
818;BME280;391;51.052;6.954;2023-10-13T09:26:12;63170.25;;;20.55;100.00
818;BME280;391;51.052;6.954;2023-10-13T09:28:16;63180.78;;;20.62;100.00
818;BME280;391;51.052;6.954;2023-10-13T09:30:21;63185.66;;;20.64;99.30
818;BME280;391;51.052;6.954;2023-10-13T09:32:25;63191.09;;;20.67;96.86
818;BME280;391;51.052;6.954;2023-10-13T09:34:30;63179.44;;;20.58;97.52
818;BME280;391;51.052;6.954;2023-10-13T09:36:38;63074.34;;;19.62;94.65
818;BME280;391;51.052;6.954;2023-10-13T09:38:41;63199.97;;;20.79;93.74
818;BME280;391;51.052;6.954;2023-10-13T09:40:51;63216.91;;;20.94;93.67
818;BME280;391;51.052;6.954;2023-10-13T09:43:00;63183.59;;;20.65;92.11
818;BME280;391;51.052;6.954;2023-10-13T09:45:09;63238.75;;;21.12;91.52
818;BME280;391;51.052;6.954;2023-10-13T09:47:19;63243.03;;;21.13;91.66
818;BME280;391;51.052;6.954;2023-10-13T09:49:28;63250.03;;;21.22;90.81
818;BME280;391;51.052;6.954;2023-10-13T09:51:48;63255.88;;;21.29;91.37
818;BME280;391;51.052;6.954;2023-10-13T09:53:55;63255.69;;;21.27;90.13
818;BME280;391;51.052;6.954;2023-10-13T09:56:25;63235.34;;;21.08;89.98
818;BME280;391;51.052;6.954;2023-10-13T09:58:31;63266.78;;;21.34;89.93
818;BME280;391;51.052;6.954;2023-10-13T10:00:42;63278.28;;;21.47;89.62
818;BME280;391;51.052;6.954;2023-10-13T10:02:52;63265.84;;;21.36;88.48
818;BME280;391;51.052;6.954;2023-10-13T10:05:00;63276.38;;;21.43;89.44
818;BME280;391;51.052;6.954;2023-10-13T10:07:26;63256.81;;;21.28;89.42
818;BME280;391;51.052;6.954;2023-10-13T10:09:32;63276.75;;;21.48;89.24
818;BME280;391;51.052;6.954;2023-10-13T10:12:01;63284.66;;;21.55;87.51
818;BME280;391;51.052;6.954;2023-10-13T10:14:11;63298.22;;;21.67;86.06
818;BME280;391;51.052;6.954;2023-10-13T10:16:27;63293.72;;;21.63;87.88
818;BME280;391;51.052;6.954;2023-10-13T10:18:32;63301.41;;;21.68;87.28
818;BME280;391;51.052;6.954;2023-10-13T10:20:36;63317.44;;;21.84;86.27
818;BME280;391;51.052;6.954;2023-10-13T10:22:55;63312.56;;;21.82;86.13
818;BME280;391;51.052;6.954;2023-10-13T10:25:01;63337.44;;;22.04;85.50
818;BME280;391;51.052;6.954;2023-10-13T10:27:05;63360.03;;;22.18;85.26
818;BME280;391;51.052;6.954;2023-10-13T10:29:10;63369.44;;;22.31;83.88
818;BME280;391;51.052;6.954;2023-10-13T10:31:16;63368.69;;;22.28;84.41
818;BME280;391;51.052;6.954;2023-10-13T10:33:29;63340.84;;;22.07;84.13
818;BME280;391;51.052;6.954;2023-10-13T10:35:36;63380.75;;;22.41;84.45
818;BME280;391;51.052;6.954;2023-10-13T10:37:41;63379.06;;;22.39;84.00
818;BME280;391;51.052;6.954;2023-10-13T10:39:51;63368.31;;;22.30;84.35
818;BME280;391;51.052;6.954;2023-10-13T10:42:08;63368.91;;;22.30;84.25
818;BME280;391;51.052;6.954;2023-10-13T10:44:18;63360.78;;;22.21;83.64
818;BME280;391;51.052;6.954;2023-10-13T10:46:29;63366.28;;;22.30;83.67
818;BME280;391;51.052;6.954;2023-10-13T10:48:40;63368.31;;;22.30;84.17
818;BME280;391;51.052;6.954;2023-10-13T10:50:51;63364.00;;;22.28;85.05
818;BME280;391;51.052;6.954;2023-10-13T10:52:56;63376.25;;;22.37;84.57
818;BME280;391;51.052;6.954;2023-10-13T10:55:01;63366.06;;;22.28;83.67
818;BME280;391;51.052;6.954;2023-10-13T10:57:09;63440.91;;;22.97;82.22
818;BME280;391;51.052;6.954;2023-10-13T10:59:19;63474.84;;;23.27;79.96
818;BME280;391;51.052;6.954;2023-10-13T11:01:28;63488.81;;;23.37;79.88
818;BME280;391;51.052;6.954;2023-10-13T11:03:40;63525.63;;;23.70;77.12
818;BME280;391;51.052;6.954;2023-10-13T11:05:45;63525.63;;;23.70;76.62
818;BME280;391;51.052;6.954;2023-10-13T11:07:50;63543.38;;;23.88;76.02
818;BME280;391;51.052;6.954;2023-10-13T11:09:53;63539.19;;;23.82;75.28
818;BME280;391;51.052;6.954;2023-10-13T11:12:11;63548.66;;;23.95;74.29
818;BME280;391;51.052;6.954;2023-10-13T11:14:22;63534.47;;;23.76;76.14
818;BME280;391;51.052;6.954;2023-10-13T11:16:28;63514.13;;;23.64;75.72
818;BME280;391;51.052;6.954;2023-10-13T11:18:37;63505.22;;;23.52;75.19
818;BME280;391;51.052;6.954;2023-10-13T11:20:43;63463.34;;;23.14;75.96
818;BME280;391;51.052;6.954;2023-10-13T11:22:47;63487.88;;;23.39;75.83
818;BME280;391;51.052;6.954;2023-10-13T11:24:50;63478.63;;;23.28;77.28
818;BME280;391;51.052;6.954;2023-10-13T11:26:56;63470.13;;;23.20;76.38
818;BME280;391;51.052;6.954;2023-10-13T11:29:03;63465.41;;;23.14;77.08
818;BME280;391;51.052;6.954;2023-10-13T11:31:12;63456.00;;;23.08;78.16
818;BME280;391;51.052;6.954;2023-10-13T11:33:22;63431.09;;;22.86;77.23
818;BME280;391;51.052;6.954;2023-10-13T11:35:26;63453.72;;;23.06;76.37
818;BME280;391;51.052;6.954;2023-10-13T11:37:50;63450.69;;;23.01;76.80
818;BME280;391;51.052;6.954;2023-10-13T11:39:59;63439.78;;;22.96;77.51
818;BME280;391;51.052;6.954;2023-10-13T11:42:02;63439.22;;;22.95;77.48
818;BME280;391;51.052;6.954;2023-10-13T11:44:14;63437.53;;;22.94;77.89
818;BME280;391;51.052;6.954;2023-10-13T11:46:26;63436.78;;;22.91;78.46
818;BME280;391;51.052;6.954;2023-10-13T11:48:53;63433.19;;;22.92;77.72
818;BME280;391;51.052;6.954;2023-10-13T11:50:57;63433.16;;;22.85;78.95
818;BME280;391;51.052;6.954;2023-10-13T11:53:00;63436.19;;;22.90;77.89
818;BME280;391;51.052;6.954;2023-10-13T11:55:04;63431.09;;;22.86;78.02
818;BME280;391;51.052;6.954;2023-10-13T11:57:09;63436.56;;;22.88;76.75
818;BME280;391;51.052;6.954;2023-10-13T11:59:12;63435.44;;;22.87;77.13
818;BME280;391;51.052;6.954;2023-10-13T12:01:20;63422.25;;;22.80;77.42
818;BME280;391;51.052;6.954;2023-10-13T12:03:45;63408.25;;;22.63;76.48